To NAV CANADA Home Page Login to a new session Search on AWWS site Disclaimer Vers la page française équivalente Tips FAQ What's new on the site To the Forecasts and Observations / NOTAM section To "File a Flight Plan" website Publications and other links Update of the User's profile FIC Telephone Numbers My Weather Data Folder Route Weather Data Regional Weather Data Local Weather Data To the Forecasts and Observations / NOTAM section
Request Generated 03/19/2019 at 23:11:55 UTC . Weather information available at that time is displayed.

METAR/TAF

MUSKOKA/ON    (show WxCam)

METAR CYQA 192300Z AUTO 25003KT 230V290 9SM FEW200 02/M08 A3027 RMK SLP270=
METAR CYQA 192200Z AUTO 27006KT 200V290 9SM CLR 02/M09 A3028 RMK SLP271=
METAR CYQA 192100Z AUTO 29009KT 240V320 9SM CLR 03/M09 A3029 RMK SLP273=

TAF CYQA 191938Z 1920/2002 28008G18KT P6SM FEW020 BKN050 TEMPO
1920/1921 5SM -SHRASN BR BKN020
FM192100 25007KT P6SM FEW040
BECMG 1922/1924 VRB03KT
RMK FCST BASED ON AUTO OBS. NXT FCST WILL BE ISSUED AT 201145Z=
Your time UTC time
Weather data provided by Environment Canada and NAV CANADA